CEA3 weather

Olds-Didsbury Airport
Olds-Didsbury, Alberta, Canada

Public forecast

Using degrees Celsius for public forecast. Weather courtesy of forecast.io.

METAR (pilot weather report)

Closest report is Red Deer Regional Airport, 29.3 nm (54.3 km) NNE. Retrieved 2019/05/24 18:00 UTC (49 minutes ago):

CYQF 241800Z 35005KT 310V010 15SM SCT032 BKN060 OVC120 15/08 A2980 RMK CU4SC3AC1 SLP105 DENSITY ALT 3800FT

TAF (pilot weather forecast)

Closest forecast is Red Deer Regional Airport, 29.3 nm (54.3 km) NNE. Retrieved 2019/05/24 18:39 UTC (10 minutes ago):

TAF CYQF 241738Z 2418/2506 01010KT P6SM SCT020 BKN060 TEMPO 2418/2503 P6SM -SHRA PROB30 2419/2503 VRB15G25KT 5SM TSRA BKN040CB FM250300 34010KT P6SM BKN030 TEMPO 2503/2506 P6SM -SHRA BKN020 RMK NXT FCST BY 250000Z